Time;durP1;ratioP1;P1;durP2;ratioP2;P2;SDS_P1;SDS_P2;PMS_P1;PMS_P2;Temp;Humidity;BMP_temperature;BMP_pressure;BME280_temperature;BME280_humidity;BME280_pressure;Samples;Min_cycle;Max_cycle;Signal;HPM_P1;HPM_P2
2024/02/13 00:00:00;;;;;;;15.18;7.80;;;;;;;;;;5071225;28;20383;-80
2024/02/13 00:02:26;;;;;;;23.73;9.65;;;;;;;;;;5071124;28;20024;-79
2024/02/13 00:04:54;;;;;;;20.85;9.40;;;;;;;;;;5070948;28;20020;-81
2024/02/13 00:07:20;;;;;;;27.75;10.02;;;;;;;;;;5072259;28;20126;-79
2024/02/13 00:09:48;;;;;;;20.20;9.70;;;;;;;;;;5071276;28;20062;-78
2024/02/13 00:12:14;;;;;;;19.40;10.27;;;;;;;;;;5071026;28;20028;-80
2024/02/13 00:14:40;;;;;;;24.75;9.57;;;;;;;;;;5072113;28;20043;-80
2024/02/13 00:17:07;;;;;;;18.40;10.55;;;;;;;;;;5071018;28;20385;-80
2024/02/13 00:19:33;;;;;;;27.13;9.75;;;;;;;;;;5070729;28;20031;-81
2024/02/13 00:21:59;;;;;;;18.63;9.52;;;;;;;;;;5071087;28;20361;-78
2024/02/13 00:24:25;;;;;;;15.20;9.50;;;;;;;;;;5070731;28;20021;-78
2024/02/13 00:26:52;;;;;;;16.52;9.38;;;;;;;;;;5070863;28;20017;-78
2024/02/13 00:29:18;;;;;;;22.08;9.38;;;;;;;;;;5071929;28;20128;-78
2024/02/13 00:31:45;;;;;;;20.25;10.18;;;;;;;;;;5070886;28;20028;-79
2024/02/13 00:34:11;;;;;;;21.30;10.43;;;;;;;;;;5070610;28;20098;-79
2024/02/13 00:36:37;;;;;;;24.27;12.30;;;;;;;;;;5070854;28;20469;-79
2024/02/13 00:39:03;;;;;;;20.10;10.40;;;;;;;;;;5070877;28;20025;-78
2024/02/13 00:41:29;;;;;;;27.40;11.15;;;;;;;;;;5070506;28;20023;-79
2024/02/13 00:43:55;;;;;;;21.08;10.35;;;;;;;;;;5070771;28;20103;-79
2024/02/13 00:46:21;;;;;;;25.05;12.23;;;;;;;;;;5070519;28;20032;-77
2024/02/13 00:48:47;;;;;;;25.98;11.40;;;;;;;;;;5070864;28;20043;-78
2024/02/13 00:51:15;;;;;;;23.15;10.50;;;;;;;;;;5076036;28;20074;-79
2024/02/13 00:53:42;;;;;;;25.23;12.82;;;;;;;;;;5074951;28;20055;-78
2024/02/13 00:56:08;;;;;;;28.25;12.30;;;;;;;;;;5074710;28;20056;-77
2024/02/13 00:58:36;;;;;;;29.42;13.02;;;;;;;;;;5074676;28;20032;-77
2024/02/13 01:01:03;;;;;;;29.90;13.18;;;;;;;;;;5074683;28;20513;-80
2024/02/13 01:03:29;;;;;;;25.60;13.20;;;;;;;;;;5074463;28;20028;-79
2024/02/13 01:05:55;;;;;;;32.65;14.15;;;;;;;;;;5075526;28;20039;-79
2024/02/13 01:08:24;;;;;;;24.40;12.52;;;;;;;;;;5075143;28;20025;-78
2024/02/13 01:10:51;;;;;;;25.42;13.88;;;;;;;;;;5075146;28;20115;-79
2024/02/13 01:13:18;;;;;;;29.17;13.82;;;;;;;;;;5075235;28;20029;-79
2024/02/13 01:15:44;;;;;;;33.28;14.30;;;;;;;;;;5075124;28;20127;-79
2024/02/13 01:18:10;;;;;;;25.20;14.15;;;;;;;;;;5075089;28;20135;-79
2024/02/13 01:20:36;;;;;;;31.33;15.23;;;;;;;;;;5074997;28;20044;-77
2024/02/13 01:23:02;;;;;;;23.35;13.07;;;;;;;;;;5075941;28;20016;-78
2024/02/13 01:25:30;;;;;;;26.10;15.73;;;;;;;;;;5074146;28;20119;-79
2024/02/13 01:27:57;;;;;;;32.42;15.50;;;;;;;;;;5074207;28;20035;-79
2024/02/13 01:30:23;;;;;;;21.65;13.90;;;;;;;;;;5074007;28;20028;-78
2024/02/13 01:32:50;;;;;;;35.10;18.75;;;;;;;;;;5074243;28;20027;-79
2024/02/13 01:35:18;;;;;;;30.52;19.48;;;;;;;;;;5073792;28;20025;-78
2024/02/13 01:37:46;;;;;;;39.60;20.10;;;;;;;;;;5074034;28;20025;-78
2024/02/13 01:40:15;;;;;;;38.47;21.83;;;;;;;;;;5075166;28;20025;-78
2024/02/13 01:42:42;;;;;;;38.47;22.88;;;;;;;;;;5073990;28;20020;-78
2024/02/13 01:45:13;;;;;;;39.33;22.83;;;;;;;;;;5075297;28;20028;-79
2024/02/13 01:47:42;;;;;;;38.35;23.63;;;;;;;;;;5073555;28;20025;-79
2024/02/13 01:50:08;;;;;;;31.80;22.17;;;;;;;;;;5073813;28;20032;-79
2024/02/13 01:52:36;;;;;;;42.05;23.17;;;;;;;;;;5073610;28;20391;-78
2024/02/13 01:55:03;;;;;;;42.75;24.75;;;;;;;;;;5073678;28;20021;-78
2024/02/13 01:57:32;;;;;;;44.65;25.52;;;;;;;;;;5073538;28;20085;-78
2024/02/13 01:59:59;;;;;;;46.17;22.73;;;;;;;;;;5073900;28;20024;-78
2024/02/13 02:02:25;;;;;;;40.45;21.23;;;;;;;;;;5073941;28;20025;-78
2024/02/13 02:04:53;;;;;;;40.38;23.73;;;;;;;;;;5073597;28;20021;-78
2024/02/13 02:07:20;;;;;;;42.75;24.83;;;;;;;;;;5074412;28;20053;-78
2024/02/13 02:09:46;;;;;;;48.35;26.23;;;;;;;;;;5073066;28;20029;-78
2024/02/13 02:12:13;;;;;;;45.15;25.58;;;;;;;;;;5074657;28;20019;-78
2024/02/13 02:14:39;;;;;;;38.85;22.52;;;;;;;;;;5072778;28;20040;-78
2024/02/13 02:17:09;;;;;;;42.85;25.80;;;;;;;;;;5073297;28;20021;-79
2024/02/13 02:19:36;;;;;;;41.15;24.10;;;;;;;;;;5072920;28;20460;-80
2024/02/13 02:22:03;;;;;;;37.97;23.73;;;;;;;;;;5073289;28;20372;-80
2024/02/13 02:24:30;;;;;;;42.83;27.48;;;;;;;;;;5073129;28;20020;-80
2024/02/13 02:26:56;;;;;;;46.63;25.80;;;;;;;;;;5074368;28;20024;-81
2024/02/13 02:29:23;;;;;;;50.53;25.77;;;;;;;;;;5073832;28;20106;-79
2024/02/13 02:31:50;;;;;;;38.45;24.98;;;;;;;;;;5074434;28;20115;-80
2024/02/13 02:34:18;;;;;;;42.15;26.55;;;;;;;;;;5072944;28;20479;-80
2024/02/13 02:36:52;;;;;;;42.47;26.52;;;;;;;;;;5074233;28;20097;-79
2024/02/13 02:39:18;;;;;;;49.97;27.65;;;;;;;;;;5072775;28;20036;-79
2024/02/13 02:41:46;;;;;;;42.35;27.13;;;;;;;;;;5073060;28;20055;-79
2024/02/13 02:44:12;;;;;;;38.03;24.80;;;;;;;;;;5072705;28;20028;-79
2024/02/13 02:46:38;;;;;;;48.05;30.02;;;;;;;;;;5073981;28;20052;-79
2024/02/13 02:49:05;;;;;;;41.08;25.70;;;;;;;;;;5072711;28;20028;-79
2024/02/13 02:51:32;;;;;;;42.67;26.42;;;;;;;;;;5072542;28;20064;-79
2024/02/13 02:53:58;;;;;;;40.95;24.50;;;;;;;;;;5073693;28;20024;-80
2024/02/13 02:56:24;;;;;;;46.47;29.40;;;;;;;;;;5072371;28;20028;-78
2024/02/13 02:58:50;;;;;;;46.28;30.10;;;;;;;;;;5072419;28;20021;-78
2024/02/13 03:01:17;;;;;;;45.78;30.02;;;;;;;;;;5072475;28;20079;-80
2024/02/13 03:03:43;;;;;;;46.83;28.85;;;;;;;;;;5074022;28;20021;-78
2024/02/13 03:06:09;;;;;;;47.58;27.38;;;;;;;;;;5073981;28;20032;-78
2024/02/13 03:08:35;;;;;;;45.25;27.25;;;;;;;;;;5073097;28;20028;-78
2024/02/13 03:11:01;;;;;;;51.50;30.63;;;;;;;;;;5071929;28;20086;-78
2024/02/13 03:13:27;;;;;;;44.75;29.75;;;;;;;;;;5071377;28;20440;-79
2024/02/13 03:15:54;;;;;;;50.05;31.60;;;;;;;;;;5071678;28;20079;-78
2024/02/13 03:18:20;;;;;;;51.00;31.52;;;;;;;;;;5071752;28;20025;-78
2024/02/13 03:20:46;;;;;;;46.85;28.38;;;;;;;;;;5072126;28;20464;-79
2024/02/13 03:23:12;;;;;;;47.38;29.92;;;;;;;;;;5073239;28;20021;-76
2024/02/13 03:25:38;;;;;;;45.25;29.05;;;;;;;;;;5071641;28;20024;-77
2024/02/13 03:28:05;;;;;;;41.22;28.55;;;;;;;;;;5071707;28;20073;-79
2024/02/13 03:30:31;;;;;;;50.25;29.88;;;;;;;;;;5071590;28;20515;-79
2024/02/13 03:32:57;;;;;;;46.40;32.15;;;;;;;;;;5071834;28;20056;-78
2024/02/13 03:35:23;;;;;;;47.03;30.48;;;;;;;;;;5071602;28;20063;-80
2024/02/13 03:37:50;;;;;;;50.55;32.10;;;;;;;;;;5075571;28;20104;-80
2024/02/13 03:40:16;;;;;;;48.10;32.70;;;;;;;;;;5078380;28;20020;-78
2024/02/13 03:42:45;;;;;;;50.17;31.30;;;;;;;;;;5072122;28;20024;-77
2024/02/13 03:45:11;;;;;;;48.27;28.17;;;;;;;;;;5071705;28;20056;-78
2024/02/13 03:47:38;;;;;;;45.67;31.95;;;;;;;;;;5072215;28;20754;-78
2024/02/13 03:50:04;;;;;;;45.03;30.13;;;;;;;;;;5072479;28;20483;-78
2024/02/13 03:52:31;;;;;;;45.75;30.55;;;;;;;;;;5072294;28;20035;-79
2024/02/13 03:54:57;;;;;;;50.85;32.33;;;;;;;;;;5071230;28;20020;-78
2024/02/13 03:57:24;;;;;;;47.97;31.60;;;;;;;;;;5070902;28;20029;-79
2024/02/13 03:59:50;;;;;;;43.90;25.88;;;;;;;;;;5071091;28;20021;-79
2024/02/13 04:02:16;;;;;;;49.80;28.90;;;;;;;;;;5071295;28;20526;-80
2024/02/13 04:04:42;;;;;;;49.10;31.23;;;;;;;;;;5070997;28;20029;-80
2024/02/13 04:07:08;;;;;;;48.28;31.20;;;;;;;;;;5072267;28;20021;-79
2024/02/13 04:09:36;;;;;;;46.10;31.35;;;;;;;;;;5070954;28;20028;-81
2024/02/13 04:12:04;;;;;;;45.92;30.55;;;;;;;;;;5070950;28;20051;-81
2024/02/13 04:14:30;;;;;;;49.35;29.83;;;;;;;;;;5072073;28;20535;-78
2024/02/13 04:16:56;;;;;;;42.70;27.38;;;;;;;;;;5072477;28;20108;-77
2024/02/13 04:19:22;;;;;;;52.05;31.58;;;;;;;;;;5070624;28;20028;-78
2024/02/13 04:21:48;;;;;;;48.88;29.88;;;;;;;;;;5071005;28;20021;-78
2024/02/13 04:24:14;;;;;;;50.20;29.80;;;;;;;;;;5071429;28;20021;-78
2024/02/13 04:26:41;;;;;;;45.20;28.70;;;;;;;;;;5070663;28;20546;-78
2024/02/13 04:29:08;;;;;;;48.13;28.75;;;;;;;;;;5070930;28;20031;-79
2024/02/13 04:31:35;;;;;;;40.97;29.27;;;;;;;;;;5070761;28;20345;-80
2024/02/13 04:34:02;;;;;;;41.03;26.60;;;;;;;;;;5070895;28;20453;-78
2024/02/13 04:36:28;;;;;;;56.17;30.13;;;;;;;;;;5070687;28;20037;-79
2024/02/13 04:38:54;;;;;;;43.90;29.15;;;;;;;;;;5070624;28;20060;-78
2024/02/13 04:41:20;;;;;;;38.85;26.85;;;;;;;;;;5070859;28;20024;-78
2024/02/13 04:43:47;;;;;;;47.03;29.83;;;;;;;;;;5070710;28;20031;-80
2024/02/13 04:46:13;;;;;;;51.92;27.90;;;;;;;;;;5070847;28;20032;-79
2024/02/13 04:48:39;;;;;;;39.65;27.90;;;;;;;;;;5071752;28;20033;-79
2024/02/13 04:51:05;;;;;;;46.70;29.92;;;;;;;;;;5072152;28;20020;-79
2024/02/13 04:53:32;;;;;;;44.20;29.98;;;;;;;;;;5070443;28;20036;-78
2024/02/13 04:55:58;;;;;;;40.05;26.23;;;;;;;;;;5070655;28;20115;-78
2024/02/13 04:58:30;;;;;;;40.15;28.48;;;;;;;;;;5071729;28;20028;-78
2024/02/13 05:01:04;;;;;;;52.53;30.85;;;;;;;;;;5070718;28;20021;-79
2024/02/13 05:03:39;;;;;;;43.20;28.95;;;;;;;;;;5070426;28;20092;-78
2024/02/13 05:08:55;;;;;;;43.53;26.30;;;;;;;;;;5072178;28;20093;-80
2024/02/13 05:11:23;;;;;;;44.85;28.50;;;;;;;;;;5070980;28;20467;-80
2024/02/13 05:13:49;;;;;;;41.08;28.10;;;;;;;;;;5070818;28;20112;-79
2024/02/13 05:16:17;;;;;;;39.22;28.15;;;;;;;;;;5070172;28;20389;-82
2024/02/13 05:18:44;;;;;;;48.15;30.83;;;;;;;;;;5070284;28;20035;-81
2024/02/13 05:21:10;;;;;;;43.97;29.30;;;;;;;;;;5070430;28;20029;-79
2024/02/13 05:23:38;;;;;;;44.70;30.15;;;;;;;;;;5070298;28;20032;-79
2024/02/13 05:26:07;;;;;;;41.22;28.00;;;;;;;;;;5070406;28;20024;-76
2024/02/13 05:28:33;;;;;;;43.50;24.67;;;;;;;;;;5071115;28;20020;-78
2024/02/13 05:30:59;;;;;;;42.50;26.10;;;;;;;;;;5070106;28;20290;-78
2024/02/13 05:33:25;;;;;;;50.65;28.20;;;;;;;;;;5070098;28;20464;-77
2024/02/13 05:35:51;;;;;;;42.50;28.05;;;;;;;;;;5071843;28;20025;-77
2024/02/13 05:38:17;;;;;;;42.58;26.85;;;;;;;;;;5073716;28;20032;-78
2024/02/13 05:40:43;;;;;;;45.15;27.15;;;;;;;;;;5073709;28;20320;-78
2024/02/13 05:43:11;;;;;;;42.80;24.70;;;;;;;;;;5073977;28;20171;-78
2024/02/13 05:45:37;;;;;;;45.65;28.02;;;;;;;;;;5073808;28;20017;-78
2024/02/13 05:48:03;;;;;;;41.72;26.63;;;;;;;;;;5073948;28;20024;-78
2024/02/13 05:50:29;;;;;;;26.13;19.15;;;;;;;;;;5073458;28;20032;-78
2024/02/13 05:52:55;;;;;;;43.33;25.95;;;;;;;;;;5073560;28;20061;-77
2024/02/13 05:55:22;;;;;;;36.88;23.15;;;;;;;;;;5074680;28;20052;-76
2024/02/13 05:57:48;;;;;;;33.97;23.63;;;;;;;;;;5073564;28;20040;-77
2024/02/13 06:00:14;;;;;;;44.88;25.88;;;;;;;;;;5074099;28;20043;-76
2024/02/13 06:02:41;;;;;;;42.42;24.92;;;;;;;;;;5073817;28;20456;-75
2024/02/13 06:05:07;;;;;;;33.60;22.23;;;;;;;;;;5073327;28;20021;-75
2024/02/13 06:07:34;;;;;;;41.60;23.33;;;;;;;;;;5072839;28;20028;-76
2024/02/13 06:10:00;;;;;;;40.35;23.35;;;;;;;;;;5073425;28;20036;-76
2024/02/13 06:12:26;;;;;;;37.63;24.73;;;;;;;;;;5073312;28;20480;-77
2024/02/13 06:14:52;;;;;;;40.00;25.40;;;;;;;;;;5072581;28;20036;-77
2024/02/13 06:17:19;;;;;;;47.78;26.35;;;;;;;;;;5073315;28;20381;-77
2024/02/13 06:19:45;;;;;;;42.03;24.20;;;;;;;;;;5073038;28;20025;-77
2024/02/13 06:22:11;;;;;;;42.13;26.50;;;;;;;;;;5073214;28;20074;-78
2024/02/13 06:24:38;;;;;;;44.53;25.98;;;;;;;;;;5072971;28;20021;-79
2024/02/13 06:27:04;;;;;;;40.58;23.52;;;;;;;;;;5074632;28;20119;-77
2024/02/13 06:29:30;;;;;;;41.22;22.67;;;;;;;;;;5072743;28;20035;-78
2024/02/13 06:31:57;;;;;;;35.60;22.10;;;;;;;;;;5073019;28;20103;-78
2024/02/13 06:34:23;;;;;;;39.58;24.52;;;;;;;;;;5072886;28;20161;-78
2024/02/13 06:36:50;;;;;;;45.17;26.67;;;;;;;;;;5074042;28;20021;-78
2024/02/13 06:39:21;;;;;;;42.00;25.00;;;;;;;;;;5072937;28;20062;-76
2024/02/13 06:41:46;;;;;;;;;;;;;;;;;;5072970;28;20116;-78
2024/02/13 06:44:12;;;;;;;35.63;22.58;;;;;;;;;;5072808;28;19944;-78
2024/02/13 06:46:39;;;;;;;39.28;22.25;;;;;;;;;;5071544;28;20082;-78
2024/02/13 06:49:05;;;;;;;45.30;24.45;;;;;;;;;;5072277;28;20420;-78
2024/02/13 06:51:33;;;;;;;44.30;22.42;;;;;;;;;;5072209;28;20025;-78
2024/02/13 06:54:01;;;;;;;34.28;19.08;;;;;;;;;;5072346;28;20021;-78
2024/02/13 06:56:27;;;;;;;36.65;22.63;;;;;;;;;;5073652;28;20511;-78
2024/02/13 06:58:53;;;;;;;35.97;20.42;;;;;;;;;;5071976;28;20464;-78
2024/02/13 07:01:20;;;;;;;40.28;22.77;;;;;;;;;;5073522;28;20104;-78
2024/02/13 07:03:46;;;;;;;35.83;20.23;;;;;;;;;;5071989;28;20029;-77
2024/02/13 07:06:16;;;;;;;37.60;20.45;;;;;;;;;;5072567;28;20074;-80
2024/02/13 07:08:42;;;;;;;40.72;21.48;;;;;;;;;;5072009;28;20029;-78
2024/02/13 07:11:08;;;;;;;30.20;16.42;;;;;;;;;;5072335;28;20104;-78
2024/02/13 07:13:34;;;;;;;37.42;20.23;;;;;;;;;;5071587;28;20032;-78
2024/02/13 07:16:00;;;;;;;38.33;19.05;;;;;;;;;;5073047;28;20049;-78
2024/02/13 07:18:26;;;;;;;30.73;17.80;;;;;;;;;;5072018;28;20025;-78
2024/02/13 07:20:52;;;;;;;33.42;17.27;;;;;;;;;;5072874;28;20093;-79
2024/02/13 07:23:18;;;;;;;28.73;15.07;;;;;;;;;;5071739;28;20021;-78
2024/02/13 07:25:44;;;;;;;32.33;16.70;;;;;;;;;;5071772;28;20111;-79
2024/02/13 07:28:10;;;;;;;28.70;15.15;;;;;;;;;;5073109;28;20020;-78
2024/02/13 07:30:37;;;;;;;29.17;14.25;;;;;;;;;;5071579;28;20032;-79
2024/02/13 07:33:03;;;;;;;25.63;12.95;;;;;;;;;;5071603;28;20113;-78
2024/02/13 07:35:29;;;;;;;27.83;11.52;;;;;;;;;;5071313;28;20024;-77
2024/02/13 07:37:55;;;;;;;25.88;12.30;;;;;;;;;;5071176;28;20036;-78
2024/02/13 07:40:21;;;;;;;28.50;15.82;;;;;;;;;;5072685;28;20095;-79
2024/02/13 07:42:47;;;;;;;21.85;12.57;;;;;;;;;;5072031;28;20396;-79
2024/02/13 07:45:13;;;;;;;22.95;12.32;;;;;;;;;;5071158;28;20468;-79
2024/02/13 07:47:41;;;;;;;19.30;10.90;;;;;;;;;;5071001;28;20029;-79
2024/02/13 07:50:09;;;;;;;15.82;9.27;;;;;;;;;;5071492;28;20468;-79
2024/02/13 07:52:35;;;;;;;19.65;8.98;;;;;;;;;;5071188;28;20055;-79
2024/02/13 07:55:04;;;;;;;12.70;7.35;;;;;;;;;;5071067;28;20032;-80
2024/02/13 07:57:30;;;;;;;11.63;6.53;;;;;;;;;;5072774;28;20035;-79
2024/02/13 07:59:57;;;;;;;14.43;6.25;;;;;;;;;;5071142;28;20119;-78
2024/02/13 08:02:23;;;;;;;10.85;5.88;;;;;;;;;;5071533;28;20103;-79
2024/02/13 08:04:51;;;;;;;15.77;6.40;;;;;;;;;;5071054;28;20028;-78
2024/02/13 08:07:17;;;;;;;11.80;5.50;;;;;;;;;;5071197;28;20020;-77
2024/02/13 08:09:43;;;;;;;12.75;5.47;;;;;;;;;;5070908;28;20086;-78
2024/02/13 08:12:12;;;;;;;13.90;5.80;;;;;;;;;;5071206;28;20036;-79
2024/02/13 08:14:38;;;;;;;10.85;4.72;;;;;;;;;;5070575;28;20044;-78
2024/02/13 08:17:08;;;;;;;12.98;4.95;;;;;;;;;;5072553;28;20027;-79
2024/02/13 08:19:40;;;;;;;14.32;5.57;;;;;;;;;;5071179;28;20032;-79
2024/02/13 08:22:07;;;;;;;9.30;4.60;;;;;;;;;;5070885;28;20108;-78
2024/02/13 08:24:33;;;;;;;7.18;3.70;;;;;;;;;;5072689;28;20081;-77
2024/02/13 08:26:59;;;;;;;8.55;3.72;;;;;;;;;;5070793;28;20024;-78
2024/02/13 08:29:25;;;;;;;6.50;3.25;;;;;;;;;;5071474;28;20024;-78
2024/02/13 08:31:53;;;;;;;10.20;3.85;;;;;;;;;;5072809;28;20103;-79
2024/02/13 08:34:19;;;;;;;7.88;3.38;;;;;;;;;;5071325;28;20476;-78
2024/02/13 08:36:46;;;;;;;7.93;3.25;;;;;;;;;;5071028;28;20028;-79
2024/02/13 08:39:12;;;;;;;8.90;3.72;;;;;;;;;;5071044;28;20024;-78
2024/02/13 08:41:38;;;;;;;9.75;4.63;;;;;;;;;;5072227;28;20025;-78
2024/02/13 08:44:04;;;;;;;9.88;3.35;;;;;;;;;;5071135;28;20469;-78
2024/02/13 08:46:30;;;;;;;8.15;3.15;;;;;;;;;;5070894;28;20388;-78
2024/02/13 08:48:57;;;;;;;11.15;3.75;;;;;;;;;;5070748;28;20197;-78
2024/02/13 08:51:27;;;;;;;6.72;3.15;;;;;;;;;;5072285;28;20031;-78
2024/02/13 08:53:53;;;;;;;6.28;3.17;;;;;;;;;;5070798;28;20020;-78
2024/02/13 08:56:19;;;;;;;7.18;3.30;;;;;;;;;;5070824;28;20025;-79
2024/02/13 08:58:46;;;;;;;8.63;3.30;;;;;;;;;;5070657;28;20116;-79
2024/02/13 09:01:12;;;;;;;8.52;3.35;;;;;;;;;;5070671;28;20070;-79
2024/02/13 09:03:38;;;;;;;9.00;2.75;;;;;;;;;;5072199;28;20032;-78
2024/02/13 09:06:04;;;;;;;15.85;3.08;;;;;;;;;;5070991;28;20021;-78
2024/02/13 09:08:32;;;;;;;7.78;2.90;;;;;;;;;;5071101;28;20044;-78
2024/02/13 09:10:59;;;;;;;8.20;3.08;;;;;;;;;;5072678;28;20453;-77
2024/02/13 09:13:25;;;;;;;6.40;2.78;;;;;;;;;;5074833;28;20031;-79
2024/02/13 09:15:51;;;;;;;4.82;2.20;;;;;;;;;;5074080;28;20072;-79
2024/02/13 09:18:17;;;;;;;6.00;2.65;;;;;;;;;;5074672;28;20479;-78
2024/02/13 09:20:43;;;;;;;10.90;3.78;;;;;;;;;;5074366;28;20024;-79
2024/02/13 09:23:09;;;;;;;7.70;2.15;;;;;;;;;;5074528;28;20025;-78
2024/02/13 09:25:38;;;;;;;6.60;2.38;;;;;;;;;;5074340;28;20017;-78
2024/02/13 09:28:04;;;;;;;7.78;2.88;;;;;;;;;;5074140;28;20357;-78
2024/02/13 09:30:33;;;;;;;7.63;3.67;;;;;;;;;;5074097;28;20048;-83
2024/02/13 09:32:59;;;;;;;12.68;4.20;;;;;;;;;;5075130;28;20104;-82
2024/02/13 09:35:27;;;;;;;11.98;4.05;;;;;;;;;;5074089;28;20044;-83
2024/02/13 09:37:53;;;;;;;11.85;3.63;;;;;;;;;;5073820;28;20052;-83
2024/02/13 09:40:20;;;;;;;8.98;3.45;;;;;;;;;;5074225;28;20035;-81
2024/02/13 09:42:47;;;;;;;8.30;3.03;;;;;;;;;;5073941;28;20466;-80
2024/02/13 09:45:15;;;;;;;7.43;2.50;;;;;;;;;;5074018;28;20123;-79
2024/02/13 09:47:42;;;;;;;7.93;2.25;;;;;;;;;;5073642;28;20016;-80
2024/02/13 09:50:12;;;;;;;8.50;3.47;;;;;;;;;;5073902;28;20032;-79
2024/02/13 09:52:47;;;;;;;12.13;4.15;;;;;;;;;;5073697;28;20093;-79
2024/02/13 09:55:15;;;;;;;10.55;3.63;;;;;;;;;;5073742;28;20059;-79
2024/02/13 09:57:41;;;;;;;12.43;4.25;;;;;;;;;;5073088;28;20108;-80
2024/02/13 10:00:08;;;;;;;14.43;4.35;;;;;;;;;;5073473;28;20123;-81
2024/02/13 10:02:41;;;;;;;9.98;3.78;;;;;;;;;;5073526;28;20453;-81
2024/02/13 10:05:11;;;;;;;10.77;4.82;;;;;;;;;;5073586;28;20028;-80
2024/02/13 10:07:41;;;;;;;23.33;4.75;;;;;;;;;;5073225;28;20028;-80
2024/02/13 10:10:11;;;;;;;9.38;4.35;;;;;;;;;;5073687;28;20044;-79
2024/02/13 10:12:39;;;;;;;;;;;;;;;;;;5074072;28;20129;-79
2024/02/13 10:15:08;;;;;;;9.88;3.80;;;;;;;;;;5072715;28;19916;-80
2024/02/13 10:17:35;;;;;;;12.80;4.30;;;;;;;;;;5072874;28;20021;-80
2024/02/13 10:20:01;;;;;;;10.27;3.63;;;;;;;;;;5072912;28;20037;-80
2024/02/13 10:22:27;;;;;;;13.38;3.90;;;;;;;;;;5073063;28;20440;-79
2024/02/13 10:24:54;;;;;;;12.23;3.55;;;;;;;;;;5072832;28;20017;-80
2024/02/13 10:27:20;;;;;;;9.10;3.58;;;;;;;;;;5074226;28;20150;-80
2024/02/13 10:29:46;;;;;;;14.02;4.32;;;;;;;;;;5073733;28;20533;-80
2024/02/13 10:32:12;;;;;;;9.75;3.80;;;;;;;;;;5072917;28;20028;-80
2024/02/13 10:34:38;;;;;;;10.55;3.33;;;;;;;;;;5074257;28;20030;-79
2024/02/13 10:37:08;;;;;;;9.82;4.22;;;;;;;;;;5072573;28;20021;-80
2024/02/13 10:39:35;;;;;;;;;;;;;;;;;;5073283;28;20285;-79
2024/02/13 10:42:03;;;;;;;10.20;4.43;;;;;;;;;;5072591;28;19909;-79
2024/02/13 10:44:32;;;;;;;8.65;3.78;;;;;;;;;;5072943;28;20123;-79
2024/02/13 10:46:59;;;;;;;11.38;3.95;;;;;;;;;;5072673;28;20587;-79
2024/02/13 10:49:43;;;;;;;12.35;4.03;;;;;;;;;;5072745;28;20024;-79
2024/02/13 10:52:10;;;;;;;6.80;2.88;;;;;;;;;;5072752;28;20025;-79
2024/02/13 10:54:40;;;;;;;13.23;3.78;;;;;;;;;;5072554;28;20024;-80
2024/02/13 10:57:07;;;;;;;12.02;4.03;;;;;;;;;;5072248;28;20024;-80
2024/02/13 10:59:35;;;;;;;12.77;4.65;;;;;;;;;;5072375;28;20039;-80
2024/02/13 11:02:01;;;;;;;10.05;4.22;;;;;;;;;;5072440;28;20028;-80
2024/02/13 11:04:28;;;;;;;17.42;4.75;;;;;;;;;;5072290;28;20021;-80
2024/02/13 11:06:54;;;;;;;9.05;3.25;;;;;;;;;;5072064;28;20021;-80
2024/02/13 11:09:21;;;;;;;13.55;3.90;;;;;;;;;;5073508;28;20103;-80
2024/02/13 11:11:47;;;;;;;14.73;3.65;;;;;;;;;;5073350;28;20079;-80
2024/02/13 11:14:16;;;;;;;13.88;3.88;;;;;;;;;;5071798;28;20021;-81
2024/02/13 11:16:51;;;;;;;10.38;3.00;;;;;;;;;;5072370;28;20418;-81
2024/02/13 11:19:18;;;;;;;12.85;3.13;;;;;;;;;;5072223;28;20115;-81
2024/02/13 11:21:51;;;;;;;7.97;3.33;;;;;;;;;;5071661;28;20024;-81
2024/02/13 11:24:22;;;;;;;9.88;3.17;;;;;;;;;;5071904;28;20025;-80
2024/02/13 11:26:48;;;;;;;12.63;3.40;;;;;;;;;;5071460;28;20021;-79
2024/02/13 11:29:16;;;;;;;11.35;2.67;;;;;;;;;;5071746;28;20036;-79
2024/02/13 11:31:53;;;;;;;7.50;2.30;;;;;;;;;;5071990;28;20042;-80
2024/02/13 11:34:19;;;;;;;12.80;3.80;;;;;;;;;;5071308;28;20032;-80
2024/02/13 11:36:49;;;;;;;11.65;3.20;;;;;;;;;;5071567;28;20460;-80
2024/02/13 11:39:15;;;;;;;9.15;2.85;;;;;;;;;;5073022;28;20104;-80
2024/02/13 11:41:41;;;;;;;11.30;3.60;;;;;;;;;;5071552;28;20020;-79
2024/02/13 11:44:08;;;;;;;11.27;2.60;;;;;;;;;;5071324;28;20054;-81
2024/02/13 11:46:40;;;;;;;10.02;3.22;;;;;;;;;;5071441;28;20025;-80
2024/02/13 11:49:09;;;;;;;11.75;3.95;;;;;;;;;;5071118;28;20283;-80
2024/02/13 11:51:36;;;;;;;12.32;3.53;;;;;;;;;;5073133;28;20028;-80
2024/02/13 11:54:05;;;;;;;11.18;3.65;;;;;;;;;;5071342;28;20369;-79
2024/02/13 11:56:31;;;;;;;11.18;3.28;;;;;;;;;;5071385;28;20025;-79
2024/02/13 11:59:05;;;;;;;12.15;4.60;;;;;;;;;;5071054;28;20484;-80
2024/02/13 12:01:33;;;;;;;12.48;4.20;;;;;;;;;;5070878;28;20028;-80
2024/02/13 12:03:59;;;;;;;7.47;2.65;;;;;;;;;;5071244;28;20373;-80
2024/02/13 12:06:27;;;;;;;10.63;2.55;;;;;;;;;;5072256;28;20016;-80
2024/02/13 12:08:54;;;;;;;13.15;3.20;;;;;;;;;;5071824;28;20372;-80
2024/02/13 12:11:20;;;;;;;13.35;3.25;;;;;;;;;;5071222;28;20404;-80
2024/02/13 12:13:47;;;;;;;7.93;2.35;;;;;;;;;;5071065;28;20047;-79
2024/02/13 12:16:14;;;;;;;8.95;2.90;;;;;;;;;;5072174;28;20131;-80
2024/02/13 12:18:44;;;;;;;8.45;2.72;;;;;;;;;;5071255;28;20472;-80
2024/02/13 12:21:13;;;;;;;7.43;2.47;;;;;;;;;;5070481;28;20035;-81
2024/02/13 12:23:43;;;;;;;9.20;2.53;;;;;;;;;;5072716;28;20017;-81
2024/02/13 12:26:09;;;;;;;10.60;3.15;;;;;;;;;;5070748;28;20123;-80
2024/02/13 12:28:36;;;;;;;9.48;3.08;;;;;;;;;;5070733;28;20040;-80
2024/02/13 12:31:02;;;;;;;10.88;3.45;;;;;;;;;;5070720;28;20025;-80
2024/02/13 12:33:29;;;;;;;6.63;2.08;;;;;;;;;;5072227;28;20067;-80
2024/02/13 12:36:08;;;;;;;8.50;2.65;;;;;;;;;;5070829;28;20025;-79
2024/02/13 12:38:38;;;;;;;8.93;2.23;;;;;;;;;;5070885;28;20387;-80
2024/02/13 12:41:07;;;;;;;7.38;2.80;;;;;;;;;;5070577;28;20029;-80
2024/02/13 12:43:33;;;;;;;10.15;2.80;;;;;;;;;;5070592;28;20028;-80
2024/02/13 12:46:02;;;;;;;9.95;2.90;;;;;;;;;;5069759;28;20492;-81
2024/02/13 12:48:32;;;;;;;8.45;2.50;;;;;;;;;;5070577;28;20120;-81
2024/02/13 12:51:08;;;;;;;5.45;1.90;;;;;;;;;;5070278;28;20466;-80
2024/02/13 12:53:34;;;;;;;10.23;3.45;;;;;;;;;;5071657;28;20032;-80
2024/02/13 12:56:04;;;;;;;6.20;2.00;;;;;;;;;;5072687;28;20041;-80
2024/02/13 12:58:30;;;;;;;5.93;2.03;;;;;;;;;;5071380;28;20031;-80
2024/02/13 13:01:02;;;;;;;5.25;2.00;;;;;;;;;;5072197;28;20419;-80
2024/02/13 13:03:30;;;;;;;11.48;2.88;;;;;;;;;;5071337;28;20024;-80
2024/02/13 13:05:56;;;;;;;7.70;1.88;;;;;;;;;;5070900;28;20016;-78
2024/02/13 13:08:22;;;;;;;7.75;2.22;;;;;;;;;;5071289;28;20064;-79
2024/02/13 13:10:48;;;;;;;7.65;2.63;;;;;;;;;;5071587;28;20029;-78
2024/02/13 13:13:17;;;;;;;7.68;2.30;;;;;;;;;;5071310;28;20107;-79
2024/02/13 13:15:46;;;;;;;4.75;1.88;;;;;;;;;;5070310;28;20044;-80
2024/02/13 13:18:17;;;;;;;8.55;2.63;;;;;;;;;;5071383;28;20071;-80
2024/02/13 13:20:44;;;;;;;5.30;1.60;;;;;;;;;;5071791;28;20484;-80
2024/02/13 13:23:20;;;;;;;8.55;2.30;;;;;;;;;;5075693;28;20020;-80
2024/02/13 13:25:48;;;;;;;7.07;2.20;;;;;;;;;;5072398;28;20017;-79
2024/02/13 13:28:16;;;;;;;10.52;2.90;;;;;;;;;;5070059;28;20032;-80
2024/02/13 13:30:45;;;;;;;7.47;2.38;;;;;;;;;;5071625;28;20461;-80
2024/02/13 13:33:14;;;;;;;8.55;3.40;;;;;;;;;;5070155;28;20383;-79
2024/02/13 13:35:45;;;;;;;7.18;2.58;;;;;;;;;;5071918;28;20020;-80
2024/02/13 13:38:12;;;;;;;9.80;2.20;;;;;;;;;;5070097;28;20042;-80
2024/02/13 13:40:39;;;;;;;5.32;1.90;;;;;;;;;;5070330;28;20035;-80
2024/02/13 13:43:06;;;;;;;7.45;2.13;;;;;;;;;;5069922;28;20384;-80
2024/02/13 13:45:32;;;;;;;11.88;2.30;;;;;;;;;;5070350;28;20032;-79
2024/02/13 13:47:59;;;;;;;8.65;2.03;;;;;;;;;;5069880;28;20037;-80
2024/02/13 13:50:25;;;;;;;8.40;1.92;;;;;;;;;;5070023;28;20025;-80
2024/02/13 13:52:54;;;;;;;6.35;2.55;;;;;;;;;;5070203;28;20024;-80
2024/02/13 13:55:20;;;;;;;5.57;1.42;;;;;;;;;;5071305;28;20029;-80
2024/02/13 13:57:47;;;;;;;8.63;2.10;;;;;;;;;;5074831;28;20104;-80
2024/02/13 14:00:20;;;;;;;17.63;2.60;;;;;;;;;;5073243;28;20048;-80
2024/02/13 14:02:46;;;;;;;7.15;2.10;;;;;;;;;;5073705;28;20538;-80
2024/02/13 14:05:13;;;;;;;7.43;2.05;;;;;;;;;;5073192;28;20055;-80
2024/02/13 14:07:39;;;;;;;9.82;2.25;;;;;;;;;;5073318;28;20036;-81
2024/02/13 14:10:12;;;;;;;4.78;1.50;;;;;;;;;;5073021;28;20097;-80
2024/02/13 14:12:44;;;;;;;6.65;2.08;;;;;;;;;;5073579;28;20032;-81
2024/02/13 14:15:11;;;;;;;10.88;2.30;;;;;;;;;;5072890;28;20079;-80
2024/02/13 14:17:37;;;;;;;11.57;2.45;;;;;;;;;;5073142;28;20165;-80
2024/02/13 14:20:09;;;;;;;6.90;2.17;;;;;;;;;;5072827;28;20028;-80
2024/02/13 14:22:37;;;;;;;9.00;1.77;;;;;;;;;;5073311;28;20048;-80
2024/02/13 14:25:03;;;;;;;7.25;2.30;;;;;;;;;;5072736;28;20028;-80
2024/02/13 14:27:29;;;;;;;7.88;2.22;;;;;;;;;;5072833;28;20066;-79
2024/02/13 14:29:56;;;;;;;9.73;2.22;;;;;;;;;;5073073;28;20095;-79